Time;durP1;ratioP1;P1;durP2;ratioP2;P2;SDS_P1;SDS_P2;PMS_P1;PMS_P2;Temp;Humidity;BMP_temperature;BMP_pressure;BME280_temperature;BME280_humidity;BME280_pressure;Samples;Min_cycle;Max_cycle;Signal;HPM_P1;HPM_P2
2021/07/03 00:01:05;;;;;;;2.72;1.90;;;;;;;19.66;83.88;98336.14;1664255;84;20949;-65
2021/07/03 00:03:31;;;;;;;3.17;1.82;;;;;;;19.65;83.93;98330.52;1654526;86;21466;-65
2021/07/03 00:05:58;;;;;;;2.58;1.80;;;;;;;19.66;84.20;98330.86;1650355;87;21041;-65
2021/07/03 00:08:27;;;;;;;4.22;1.90;;;;;;;19.65;84.21;98327.39;1658891;84;21978;-65
2021/07/03 00:10:56;;;;;;;2.67;1.85;;;;;;;19.65;84.15;98323.44;1659017;85;21202;-65
2021/07/03 00:13:22;;;;;;;2.12;1.90;;;;;;;19.63;84.24;98328.52;1658004;86;20979;-65
2021/07/03 00:15:51;;;;;;;4.10;2.20;;;;;;;19.60;84.26;98324.37;1652702;86;21069;-65
2021/07/03 00:18:18;;;;;;;4.65;1.77;;;;;;;19.55;84.52;98323.52;1657248;85;21684;-65
2021/07/03 00:20:44;;;;;;;4.17;2.10;;;;;;;19.52;84.89;98321.66;1606971;87;21119;-65
2021/07/03 00:23:11;;;;;;;2.45;1.90;;;;;;;19.49;85.09;98329.83;1658148;85;21000;-65
2021/07/03 00:25:38;;;;;;;2.80;1.70;;;;;;;19.45;85.11;98329.28;1658683;86;21064;-65
2021/07/03 00:28:05;;;;;;;2.10;1.90;;;;;;;19.42;85.12;98328.73;1656468;85;20977;-65
2021/07/03 00:30:31;;;;;;;3.08;1.50;;;;;;;19.43;85.07;98327.77;1607528;88;21187;-65
2021/07/03 00:32:58;;;;;;;3.25;1.65;;;;;;;19.40;85.10;98324.93;1660064;85;21137;-65
2021/07/03 00:35:24;;;;;;;2.70;1.60;;;;;;;19.37;84.99;98326.56;1656690;85;21195;-65
2021/07/03 00:37:50;;;;;;;4.00;1.95;;;;;;;19.35;84.73;98331.16;1656298;85;21079;-65
2021/07/03 00:40:17;;;;;;;2.52;1.90;;;;;;;19.33;84.66;98337.55;1659894;86;21532;-65
2021/07/03 00:42:44;;;;;;;2.05;1.67;;;;;;;19.32;84.63;98335.39;1659914;85;21052;-65
2021/07/03 00:45:11;;;;;;;1.72;1.62;;;;;;;19.29;84.72;98335.69;1612608;87;21121;-65
2021/07/03 00:47:38;;;;;;;2.30;1.50;;;;;;;19.25;84.84;98326.40;1655574;85;21612;-64
2021/07/03 00:50:11;;;;;;;3.85;1.95;;;;;;;19.21;84.96;98323.22;1659800;85;20998;-64
2021/07/03 00:52:39;;;;;;;2.98;1.80;;;;;;;19.21;85.11;98319.75;1656416;85;21050;-63
2021/07/03 00:55:09;;;;;;;2.17;1.55;;;;;;;19.18;84.98;98322.19;1658172;86;21058;-64
2021/07/03 00:57:38;;;;;;;2.20;1.98;;;;;;;19.15;85.29;98325.14;1666462;85;21122;-64
2021/07/03 01:00:08;;;;;;;2.12;1.70;;;;;;;19.13;85.67;98332.84;1668222;85;21226;-64
2021/07/03 01:02:36;;;;;;;8.20;1.82;;;;;;;19.10;85.97;98331.33;1636268;85;21083;-64
2021/07/03 01:05:04;;;;;;;4.50;2.10;;;;;;;19.09;86.18;98330.16;1658179;85;21425;-64
2021/07/03 01:07:34;;;;;;;2.30;1.72;;;;;;;19.07;86.30;98331.61;1619011;87;21089;-64
2021/07/03 01:10:04;;;;;;;3.15;2.27;;;;;;;19.01;86.42;98324.77;1658769;85;21744;-64
2021/07/03 01:12:31;;;;;;;3.67;1.90;;;;;;;18.96;86.69;98323.06;1642085;85;21044;-64
2021/07/03 01:14:58;;;;;;;2.52;1.90;;;;;;;18.90;87.17;98321.34;1658232;85;21017;-64
2021/07/03 01:17:26;;;;;;;1.82;1.72;;;;;;;18.87;87.52;98312.89;1663986;85;20989;-64
2021/07/03 01:19:55;;;;;;;2.12;1.70;;;;;;;18.83;87.77;98307.56;1658439;85;20945;-64
2021/07/03 01:22:22;;;;;;;2.10;1.90;;;;;;;18.80;88.03;98301.26;1660319;85;21743;-64
2021/07/03 01:24:49;;;;;;;3.72;2.12;;;;;;;18.78;88.30;98304.55;1654836;85;21025;-64
2021/07/03 01:27:15;;;;;;;2.67;2.20;;;;;;;18.77;88.48;98300.25;1658748;85;21002;-64
2021/07/03 01:29:43;;;;;;;2.52;1.87;;;;;;;18.77;88.71;98296.30;1660233;85;21635;-64
2021/07/03 01:32:10;;;;;;;2.87;2.05;;;;;;;18.78;88.69;98298.80;1659325;85;21056;-64
2021/07/03 01:34:37;;;;;;;7.03;1.92;;;;;;;18.79;88.85;98298.28;1608480;87;21554;-64
2021/07/03 01:37:05;;;;;;;2.15;1.92;;;;;;;18.79;88.96;98298.28;1660506;84;21070;-64
2021/07/03 01:39:34;;;;;;;2.80;2.12;;;;;;;18.80;89.14;98299.45;1658640;86;20978;-64
2021/07/03 01:42:02;;;;;;;7.35;2.40;;;;;;;18.78;89.29;98290.89;1658273;85;21013;-64
2021/07/03 01:44:30;;;;;;;4.50;2.20;;;;;;;18.79;89.41;98291.69;1612141;87;21040;-64
2021/07/03 01:46:58;;;;;;;5.85;2.25;;;;;;;18.78;89.54;98288.26;1620319;87;23435;-64
2021/07/03 01:49:27;;;;;;;2.40;2.08;;;;;;;18.78;89.68;98280.36;1674896;84;21005;-64
2021/07/03 01:51:55;;;;;;;6.30;2.67;;;;;;;18.80;89.80;98281.50;1640902;85;21008;-64
2021/07/03 01:54:22;;;;;;;2.92;2.02;;;;;;;18.81;89.91;98284.48;1607563;87;21076;-64
2021/07/03 01:57:00;;;;;;;3.02;2.10;;;;;;;18.83;89.81;98287.31;1630221;87;21090;-64
2021/07/03 01:59:31;;;;;;;6.05;2.20;;;;;;;18.84;89.75;98292.92;1659234;85;21133;-64
2021/07/03 02:02:01;;;;;;;5.60;2.70;;;;;;;18.86;89.78;98296.25;1658210;85;21635;-64
2021/07/03 02:04:30;;;;;;;4.15;2.83;;;;;;;18.87;89.74;98291.81;1634983;85;21584;-64
2021/07/03 02:06:57;;;;;;;2.50;2.30;;;;;;;18.88;89.73;98292.16;1656386;85;21116;-64
2021/07/03 02:09:27;;;;;;;11.00;2.83;;;;;;;18.88;89.63;98290.84;1659540;85;21433;-64
2021/07/03 02:11:55;;;;;;;5.78;2.90;;;;;;;18.89;89.52;98284.11;1656884;85;21544;-64
2021/07/03 02:14:24;;;;;;;5.10;3.05;;;;;;;18.91;89.44;98290.56;1616417;87;21105;-64
2021/07/03 02:16:54;;;;;;;3.92;2.92;;;;;;;18.95;89.40;98295.89;1655554;86;21021;-64
2021/07/03 02:19:22;;;;;;;5.67;3.45;;;;;;;19.00;89.40;98300.70;1658085;85;20994;-64
2021/07/03 02:21:49;;;;;;;11.25;3.37;;;;;;;19.05;89.27;98302.42;1655786;86;20996;-64
2021/07/03 02:24:18;;;;;;;4.72;2.95;;;;;;;19.11;89.08;98305.80;1657081;85;21126;-64
2021/07/03 02:26:45;;;;;;;4.47;2.98;;;;;;;19.15;88.71;98300.59;1656417;85;21403;-64
2021/07/03 02:29:12;;;;;;;3.80;2.67;;;;;;;19.18;88.46;98306.38;1613511;87;21146;-64
2021/07/03 02:31:38;;;;;;;2.65;1.80;;;;;;;19.22;88.18;98301.64;1667313;85;21010;-64
2021/07/03 02:34:05;;;;;;;2.95;2.17;;;;;;;19.24;87.85;98305.80;1658303;85;20970;-64
2021/07/03 02:36:32;;;;;;;4.72;2.20;;;;;;;19.30;87.61;98304.39;1652216;85;21508;-64
2021/07/03 02:39:00;;;;;;;4.45;2.77;;;;;;;19.42;87.35;98315.07;1661422;84;20950;-64
2021/07/03 02:41:29;;;;;;;7.35;3.20;;;;;;;19.57;87.07;98308.37;1659581;84;21050;-64
2021/07/03 02:43:59;;;;;;;9.80;3.40;;;;;;;19.72;86.47;98310.00;1663304;84;20969;-64
2021/07/03 02:46:24;;;;;;;6.00;2.77;;;;;;;19.80;86.00;98315.84;1655226;84;20977;-64
2021/07/03 02:48:51;;;;;;;5.25;2.60;;;;;;;19.88;85.71;98315.92;1661115;84;22005;-64
2021/07/03 02:51:18;;;;;;;4.72;2.62;;;;;;;19.97;85.34;98315.53;1679424;84;21055;-64
2021/07/03 02:53:46;;;;;;;4.17;2.37;;;;;;;20.22;85.18;98314.74;1654466;85;21149;-64
2021/07/03 02:56:13;;;;;;;4.58;2.90;;;;;;;20.68;83.79;98324.21;1651543;85;23237;-64
2021/07/03 02:58:40;;;;;;;3.90;2.37;;;;;;;21.18;81.73;98326.16;1662334;84;21109;-64
2021/07/03 03:01:07;;;;;;;6.78;2.45;;;;;;;21.63;79.80;98324.53;1658793;84;21130;-64
2021/07/03 03:03:36;;;;;;;3.15;2.40;;;;;;;21.90;77.98;98329.56;1671544;84;21019;-64
2021/07/03 03:06:03;;;;;;;6.60;2.60;;;;;;;21.98;76.68;98328.23;1674021;84;21002;-64
2021/07/03 03:08:30;;;;;;;4.60;2.67;;;;;;;21.96;76.14;98328.09;1660768;84;21108;-64
2021/07/03 03:10:57;;;;;;;3.42;2.80;;;;;;;21.90;75.99;98329.56;1659704;84;21088;-64
2021/07/03 03:13:24;;;;;;;3.77;2.47;;;;;;;21.82;75.48;98333.51;1660377;84;21145;-64
2021/07/03 03:15:51;;;;;;;5.05;2.27;;;;;;;21.65;75.49;98328.67;1652923;86;21235;-64
2021/07/03 03:18:18;;;;;;;3.10;1.92;;;;;;;21.60;75.62;98324.84;1651594;86;21018;-64
2021/07/03 03:20:45;;;;;;;4.90;2.12;;;;;;;21.74;75.95;98334.00;1652402;85;21565;-64
2021/07/03 03:23:12;;;;;;;6.75;2.55;;;;;;;21.92;75.16;98330.23;1659985;84;21013;-64
2021/07/03 03:25:40;;;;;;;3.87;2.92;;;;;;;22.00;74.37;98334.73;1657755;85;21545;-64
2021/07/03 03:28:07;;;;;;;2.47;2.25;;;;;;;21.97;73.88;98338.52;1665797;84;21424;-64
2021/07/03 03:30:33;;;;;;;2.65;2.40;;;;;;;21.90;73.62;98332.70;1657799;85;21120;-64
2021/07/03 03:33:02;;;;;;;5.03;2.72;;;;;;;21.84;73.64;98338.15;1657172;85;21077;-64
2021/07/03 03:35:29;;;;;;;5.33;3.00;;;;;;;21.76;73.75;98343.94;1659901;85;21186;-64
2021/07/03 03:37:57;;;;;;;3.98;2.70;;;;;;;21.69;74.18;98334.48;1666814;84;21169;-64
2021/07/03 03:40:28;;;;;;;4.05;2.67;;;;;;;21.70;74.51;98335.31;1653251;86;20982;-64
2021/07/03 03:42:55;;;;;;;4.42;3.47;;;;;;;21.95;74.75;98335.70;1664809;84;20979;-64
2021/07/03 03:45:25;;;;;;;22.75;20.25;;;;;;;22.53;73.62;98338.75;1665088;85;20965;-65
2021/07/03 03:47:53;;;;;;;4.20;3.80;;;;;;;23.15;71.37;98329.72;1656164;85;21599;-65
2021/07/03 03:50:20;;;;;;;3.90;3.40;;;;;;;23.56;70.19;98326.44;1657889;85;21869;-65
2021/07/03 03:52:48;;;;;;;4.42;3.45;;;;;;;23.84;68.72;98326.77;1627336;87;21098;-65
2021/07/03 03:55:14;;;;;;;6.20;3.98;;;;;;;23.87;67.64;98323.27;1665212;85;21501;-65
2021/07/03 03:57:41;;;;;;;6.58;3.65;;;;;;;23.68;67.84;98331.67;1660020;84;21002;-64
2021/07/03 04:00:12;;;;;;;13.53;7.75;;;;;;;23.46;68.47;98336.39;1654599;84;20973;-64
2021/07/03 04:02:42;;;;;;;10.13;4.75;;;;;;;23.21;68.92;98331.17;1660169;84;23202;-64
2021/07/03 04:05:10;;;;;;;8.48;4.33;;;;;;;22.99;69.60;98326.09;1650443;86;21126;-64
2021/07/03 04:07:37;;;;;;;7.72;4.10;;;;;;;22.80;70.41;98326.97;1630950;86;21519;-64
2021/07/03 04:10:05;;;;;;;5.67;4.42;;;;;;;22.68;71.02;98337.90;1660740;85;21131;-64
2021/07/03 04:12:33;;;;;;;5.30;4.65;;;;;;;22.58;71.36;98331.93;1657186;85;21100;-64
2021/07/03 04:15:00;;;;;;;8.80;4.62;;;;;;;22.50;71.91;98337.25;1623130;87;22380;-64
2021/07/03 04:17:27;;;;;;;6.97;5.12;;;;;;;22.47;71.82;98334.10;1656898;85;21076;-64
2021/07/03 04:19:55;;;;;;;10.00;4.55;;;;;;;22.40;72.07;98339.72;1654248;84;21077;-64
2021/07/03 04:22:22;;;;;;;6.10;4.53;;;;;;;22.29;72.57;98329.80;1660844;84;21194;-64
2021/07/03 04:24:48;;;;;;;6.17;4.85;;;;;;;22.24;73.13;98331.28;1661832;84;21069;-64
2021/07/03 04:27:15;;;;;;;7.78;5.85;;;;;;;22.18;73.11;98329.31;1664314;84;21127;-64
2021/07/03 04:29:42;;;;;;;6.67;6.12;;;;;;;22.13;73.42;98323.67;1658163;84;21568;-64
2021/07/03 04:32:09;;;;;;;6.90;6.35;;;;;;;22.07;73.69;98325.16;1660588;84;20945;-64
2021/07/03 04:34:35;;;;;;;9.05;7.60;;;;;;;22.01;73.79;98331.09;1655898;84;20990;-64
2021/07/03 04:37:03;;;;;;;16.57;7.60;;;;;;;21.97;73.79;98329.27;1658967;84;21049;-64
2021/07/03 04:39:29;;;;;;;8.63;7.65;;;;;;;21.93;73.96;98332.39;1651369;86;21161;-64
2021/07/03 04:41:57;;;;;;;9.08;8.15;;;;;;;21.86;74.36;98330.05;1659096;84;21029;-64
2021/07/03 04:44:23;;;;;;;8.85;8.15;;;;;;;21.81;74.44;98333.17;1654467;84;21018;-64
2021/07/03 04:46:50;;;;;;;9.03;8.30;;;;;;;21.84;74.26;98332.03;1664732;84;21581;-64
2021/07/03 04:49:16;;;;;;;9.00;8.25;;;;;;;21.82;74.39;98332.68;1660088;84;21096;-64
2021/07/03 04:51:45;;;;;;;8.10;7.47;;;;;;;21.85;74.48;98334.52;1669036;85;21007;-64
2021/07/03 04:54:11;;;;;;;8.25;7.28;;;;;;;21.94;74.56;98334.88;1651964;85;21058;-64
2021/07/03 04:56:37;;;;;;;7.45;6.80;;;;;;;22.03;74.67;98339.70;1659074;84;21132;-64
2021/07/03 04:59:04;;;;;;;9.03;8.18;;;;;;;22.12;74.34;98335.26;1658983;85;20981;-64
2021/07/03 05:01:30;;;;;;;8.93;8.03;;;;;;;22.20;74.17;98336.08;1657694;85;21013;-64
2021/07/03 05:03:57;;;;;;;8.98;8.15;;;;;;;22.30;73.92;98336.76;1614495;87;21183;-66
2021/07/03 05:06:23;;;;;;;11.18;8.30;;;;;;;22.38;73.33;98336.44;1658491;85;20969;-65
2021/07/03 05:08:50;;;;;;;10.25;8.35;;;;;;;22.38;72.99;98341.73;1620894;87;21553;-65
2021/07/03 05:11:16;;;;;;;8.95;8.13;;;;;;;22.30;72.92;98350.50;1658844;85;21033;-65
2021/07/03 05:13:43;;;;;;;11.05;8.88;;;;;;;22.18;73.33;98351.30;1657405;85;20994;-65
2021/07/03 05:16:09;;;;;;;12.88;11.55;;;;;;;22.10;73.65;98347.83;1657997;86;21461;-65
2021/07/03 05:18:37;;;;;;;12.63;8.85;;;;;;;22.04;74.12;98355.09;1658219;86;20975;-64
2021/07/03 05:21:04;;;;;;;9.53;8.55;;;;;;;22.03;74.18;98351.62;1620402;87;21038;-64
2021/07/03 05:23:30;;;;;;;10.55;9.63;;;;;;;22.04;74.55;98361.22;1657860;85;21028;-64
2021/07/03 05:25:57;;;;;;;10.70;9.65;;;;;;;22.05;74.50;98368.17;1659808;85;21540;-65
2021/07/03 05:28:24;;;;;;;10.98;9.98;;;;;;;22.00;74.67;98370.47;1656120;86;21856;-65
2021/07/03 05:30:52;;;;;;;10.80;9.90;;;;;;;21.96;74.91;98369.96;1660775;85;20961;-64
2021/07/03 05:33:19;;;;;;;10.38;9.48;;;;;;;21.92;74.88;98375.73;1657365;85;21566;-65
2021/07/03 05:35:46;;;;;;;10.28;9.20;;;;;;;21.85;75.12;98363.63;1657213;85;21017;-65
2021/07/03 05:38:13;;;;;;;11.38;10.28;;;;;;;21.77;75.15;98365.45;1607142;87;21179;-65
2021/07/03 05:40:39;;;;;;;11.88;10.80;;;;;;;21.64;75.63;98368.03;1632717;86;22349;-65
2021/07/03 05:43:06;;;;;;;12.37;10.75;;;;;;;21.54;76.05;98370.48;1660614;84;21013;-64
2021/07/03 05:45:33;;;;;;;12.10;10.88;;;;;;;21.45;76.40;98380.19;1659998;85;20977;-64
2021/07/03 05:47:59;;;;;;;16.42;13.13;;;;;;;21.39;76.80;98374.70;1658075;85;21091;-64
2021/07/03 05:50:28;;;;;;;18.40;11.33;;;;;;;21.35;77.25;98369.41;1657687;85;21628;-64
2021/07/03 05:52:54;;;;;;;15.05;13.50;;;;;;;21.33;77.32;98376.18;1660821;84;21152;-64
2021/07/03 05:55:21;;;;;;;13.18;11.83;;;;;;;21.28;77.61;98370.52;1653460;84;21092;-64
2021/07/03 05:57:48;;;;;;;11.65;10.55;;;;;;;21.27;77.73;98376.31;1660170;84;21221;-64
2021/07/03 06:00:16;;;;;;;21.10;12.15;;;;;;;21.31;77.67;98375.02;1655955;86;21429;-64
2021/07/03 06:02:43;;;;;;;10.93;9.93;;;;;;;21.38;77.76;98377.86;1626378;87;21035;-64
2021/07/03 06:05:10;;;;;;;12.40;10.88;;;;;;;21.45;77.69;98380.19;1656427;85;21230;-64
2021/07/03 06:07:36;;;;;;;12.53;10.40;;;;;;;21.49;77.63;98376.25;1657497;85;20986;-64
2021/07/03 06:10:05;;;;;;;11.65;10.05;;;;;;;21.53;77.45;98374.95;1622284;87;21142;-65
2021/07/03 06:12:31;;;;;;;10.80;9.70;;;;;;;21.56;77.27;98379.92;1654273;84;21029;-64
2021/07/03 06:14:58;;;;;;;10.50;9.40;;;;;;;21.60;77.16;98379.09;1657152;84;21128;-65
2021/07/03 06:17:25;;;;;;;13.43;11.40;;;;;;;21.60;76.43;98374.62;1652053;86;21226;-65
2021/07/03 06:19:51;;;;;;;15.78;12.18;;;;;;;21.56;76.36;98373.31;1658008;84;21293;-64
2021/07/03 06:22:17;;;;;;;11.18;10.13;;;;;;;21.56;76.69;98373.31;1657293;84;21105;-65
2021/07/03 06:24:45;;;;;;;11.15;10.05;;;;;;;21.60;76.48;98371.15;1659217;85;21191;-65
2021/07/03 06:27:11;;;;;;;11.12;10.03;;;;;;;21.63;76.33;98370.84;1658781;84;21118;-64
2021/07/03 06:29:38;;;;;;;10.90;8.90;;;;;;;21.65;76.33;98368.86;1660752;84;21141;-64
2021/07/03 06:32:06;;;;;;;11.33;10.28;;;;;;;21.69;76.14;98370.70;1655063;85;20994;-65
2021/07/03 06:34:32;;;;;;;11.35;10.15;;;;;;;21.72;76.32;98369.06;1663771;84;20993;-64
2021/07/03 06:36:59;;;;;;;11.22;10.18;;;;;;;21.75;76.34;98372.22;1655263;85;20998;-65
2021/07/03 06:39:26;;;;;;;11.25;10.10;;;;;;;21.78;76.32;98377.69;1654838;84;21418;-64
2021/07/03 06:41:52;;;;;;;18.35;9.85;;;;;;;21.78;76.20;98375.05;1653858;84;21143;-65
2021/07/03 06:44:18;;;;;;;12.73;9.98;;;;;;;21.77;76.32;98378.67;1659562;84;21084;-65
2021/07/03 06:46:46;;;;;;;12.82;9.85;;;;;;;21.79;76.39;98377.99;1656509;84;21462;-65
2021/07/03 06:49:15;;;;;;;14.60;9.93;;;;;;;21.78;76.40;98375.84;1665557;84;21429;-65
2021/07/03 06:51:42;;;;;;;15.83;10.40;;;;;;;21.82;76.44;98382.47;1661369;84;21103;-64
2021/07/03 06:54:09;;;;;;;10.23;9.38;;;;;;;21.84;75.78;98383.64;1659550;85;21076;-65
2021/07/03 06:56:35;;;;;;;14.25;10.18;;;;;;;21.81;75.77;98380.81;1657388;85;21478;-66
2021/07/03 06:59:01;;;;;;;11.35;9.70;;;;;;;21.80;75.67;98383.13;1656647;85;21022;-64
2021/07/03 07:01:28;;;;;;;10.90;9.85;;;;;;;21.78;75.46;98386.42;1650428;86;21037;-64
2021/07/03 07:03:54;;;;;;;11.93;10.72;;;;;;;21.76;75.23;98387.11;1650137;86;21079;-64
2021/07/03 07:06:21;;;;;;;10.15;9.20;;;;;;;21.70;75.14;98382.45;1654937;85;21824;-65
2021/07/03 07:08:47;;;;;;;10.93;10.03;;;;;;;21.69;75.39;98387.90;1654309;86;21214;-64
2021/07/03 07:11:14;;;;;;;13.10;9.50;;;;;;;21.71;75.50;98385.92;1620937;87;21092;-64
2021/07/03 07:13:42;;;;;;;10.13;9.23;;;;;;;21.72;75.51;98388.91;1655274;86;20982;-65
2021/07/03 07:16:08;;;;;;;19.30;10.80;;;;;;;21.71;75.52;98386.75;1656609;85;21647;-65
2021/07/03 07:18:35;;;;;;;12.07;10.88;;;;;;;21.71;75.86;98385.92;1657443;85;21060;-65
2021/07/03 07:21:01;;;;;;;18.95;16.95;;;;;;;21.75;76.06;98388.09;1608093;87;21702;-65
2021/07/03 07:23:27;;;;;;;11.43;10.28;;;;;;;21.82;76.10;98387.77;1642493;86;21019;-65
2021/07/03 07:25:54;;;;;;;10.38;9.53;;;;;;;21.90;75.52;98398.39;1662235;84;20969;-65
2021/07/03 07:28:20;;;;;;;9.83;9.03;;;;;;;21.96;75.23;98393.79;1658353;84;21536;-65
2021/07/03 07:30:46;;;;;;;8.70;7.90;;;;;;;22.09;74.95;98401.28;1665298;84;23317;-65
2021/07/03 07:33:13;;;;;;;9.88;8.88;;;;;;;22.23;73.79;98398.00;1658443;84;20985;-66
2021/07/03 07:35:39;;;;;;;9.40;7.75;;;;;;;22.32;72.68;98397.52;1654837;85;21182;-65
2021/07/03 07:38:06;;;;;;;8.85;7.95;;;;;;;22.42;71.99;98400.00;1652897;85;21533;-65
2021/07/03 07:40:32;;;;;;;8.90;8.15;;;;;;;22.51;71.61;98397.70;1656287;86;21096;-65
2021/07/03 07:42:59;;;;;;;11.38;8.35;;;;;;;22.66;71.78;98400.02;1659646;84;21124;-65
2021/07/03 07:45:25;;;;;;;14.68;13.32;;;;;;;22.90;70.95;98400.54;1655727;85;21713;-65
2021/07/03 07:47:51;;;;;;;9.58;7.90;;;;;;;23.13;70.48;98397.52;1654507;85;21061;-65
2021/07/03 07:50:18;;;;;;;11.60;7.30;;;;;;;23.34;69.34;98397.80;1657865;85;21021;-65
2021/07/03 07:52:45;;;;;;;8.48;7.20;;;;;;;23.51;68.45;98407.86;1618788;86;21646;-65
2021/07/03 07:55:12;;;;;;;7.33;6.62;;;;;;;23.70;67.95;98404.01;1653627;84;21160;-65
2021/07/03 07:57:38;;;;;;;7.72;6.00;;;;;;;23.96;67.19;98403.22;1658389;86;21112;-65
2021/07/03 08:00:08;;;;;;;10.35;5.58;;;;;;;24.27;65.79;98401.06;1657998;84;21523;-65
2021/07/03 08:02:36;;;;;;;4.60;4.20;;;;;;;24.58;64.42;98400.49;1657519;85;21540;-66
2021/07/03 08:05:03;;;;;;;4.80;4.30;;;;;;;24.86;62.73;98411.41;1657341;85;21561;-65
2021/07/03 08:07:31;;;;;;;7.97;4.83;;;;;;;25.06;61.32;98411.75;1612327;87;21101;-65
2021/07/03 08:09:58;;;;;;;5.55;3.80;;;;;;;25.26;61.10;98407.55;1657788;84;21126;-66
2021/07/03 08:12:25;;;;;;;4.85;4.30;;;;;;;25.50;59.96;98402.47;1660498;84;21176;-65
2021/07/03 08:14:51;;;;;;;7.80;5.85;;;;;;;25.70;58.87;98406.76;1660143;84;21148;-65
2021/07/03 08:17:18;;;;;;;5.20;4.72;;;;;;;25.82;58.38;98405.77;1659236;84;21158;-66
2021/07/03 08:19:45;;;;;;;3.90;3.60;;;;;;;25.93;58.11;98404.80;1671928;84;21289;-65
2021/07/03 08:22:11;;;;;;;4.17;3.75;;;;;;;26.07;57.62;98404.44;1653528;84;21010;-65
2021/07/03 08:24:38;;;;;;;4.25;3.95;;;;;;;26.15;56.89;98412.84;1658553;84;20974;-65
2021/07/03 08:27:04;;;;;;;4.60;4.12;;;;;;;26.13;56.98;98415.69;1654769;84;21972;-65
2021/07/03 08:29:31;;;;;;;7.60;4.33;;;;;;;26.04;57.15;98414.13;1651421;84;21529;-65
2021/07/03 08:31:57;;;;;;;4.53;4.22;;;;;;;25.99;57.84;98416.52;1661185;84;21206;-66
2021/07/03 08:34:24;;;;;;;3.90;3.60;;;;;;;25.99;57.92;98419.19;1649200;86;21431;-66
2021/07/03 08:36:50;;;;;;;3.87;3.47;;;;;;;26.01;57.91;98425.16;1659273;84;21009;-65
2021/07/03 08:39:17;;;;;;;3.70;3.40;;;;;;;26.05;57.80;98418.45;1653066;85;20982;-65
2021/07/03 08:41:44;;;;;;;4.35;3.00;;;;;;;26.15;57.65;98428.32;1654358;85;21442;-65
2021/07/03 08:44:11;;;;;;;5.87;2.70;;;;;;;26.23;57.17;98430.85;1652208;85;21195;-65
2021/07/03 08:46:38;;;;;;;2.60;2.40;;;;;;;26.35;56.54;98429.39;1655343;85;21523;-65
2021/07/03 08:49:04;;;;;;;2.60;2.40;;;;;;;26.50;55.73;98433.33;1657240;84;20967;-65
2021/07/03 08:51:31;;;;;;;2.65;2.45;;;;;;;26.57;54.76;98428.90;1651928;86;21227;-66
2021/07/03 08:53:57;;;;;;;3.27;2.17;;;;;;;26.62;54.75;98429.13;1665796;84;20958;-66
2021/07/03 08:56:24;;;;;;;2.25;2.10;;;;;;;26.69;54.80;98421.20;1655446;84;21125;-65
2021/07/03 08:58:51;;;;;;;9.98;3.50;;;;;;;26.75;55.04;98420.44;1653212;85;21763;-65
2021/07/03 09:01:18;;;;;;;2.40;2.22;;;;;;;26.82;55.02;98418.64;1641606;85;21194;-66
2021/07/03 09:03:53;;;;;;;4.37;2.67;;;;;;;26.82;54.75;98423.97;1661376;84;21009;-66
2021/07/03 09:06:32;;;;;;;4.70;2.30;;;;;;;26.85;55.17;98412.92;1675237;84;21496;-65
2021/07/03 09:09:00;;;;;;;5.58;2.33;;;;;;;26.94;54.75;98411.81;1661606;84;20959;-66
2021/07/03 09:11:26;;;;;;;7.22;2.83;;;;;;;26.99;54.45;98405.87;1658794;84;20966;-65
2021/07/03 09:14:07;;;;;;;2.95;2.75;;;;;;;27.02;53.95;98409.48;1653879;84;21429;-65
2021/07/03 09:16:35;;;;;;;2.72;2.25;;;;;;;26.98;53.71;98402.88;1653545;85;21071;-65
2021/07/03 09:19:04;;;;;;;3.50;2.77;;;;;;;26.93;54.33;98408.80;1667936;84;21603;-65
2021/07/03 09:21:31;;;;;;;4.47;2.92;;;;;;;27.02;54.51;98404.16;1664434;84;21783;-65
2021/07/03 09:23:59;;;;;;;2.70;2.27;;;;;;;27.18;53.68;98415.07;1659241;85;21096;-66
2021/07/03 09:26:25;;;;;;;6.62;2.92;;;;;;;27.18;52.71;98407.06;1627231;87;21173;-65
2021/07/03 09:28:52;;;;;;;6.17;3.05;;;;;;;27.21;53.45;98407.98;1624276;87;21566;-66
2021/07/03 09:31:19;;;;;;;3.08;2.77;;;;;;;27.27;53.62;98402.69;1657458;85;21119;-66
2021/07/03 09:33:54;;;;;;;4.35;3.12;;;;;;;27.35;53.86;98404.39;1667265;85;21406;-65
2021/07/03 09:36:29;;;;;;;5.72;3.00;;;;;;;27.41;53.00;98392.91;1659424;85;20966;-65
2021/07/03 09:39:00;;;;;;;6.90;3.00;;;;;;;27.33;53.36;98394.42;1659655;85;21104;-65
2021/07/03 09:41:38;;;;;;;3.37;3.08;;;;;;;27.25;53.64;98388.71;1658674;85;21132;-65
2021/07/03 09:44:07;;;;;;;6.37;2.65;;;;;;;27.23;53.49;98389.92;1653132;85;21590;-66
2021/07/03 09:46:42;;;;;;;2.52;2.20;;;;;;;27.21;52.63;98394.13;1663067;84;21441;-68
2021/07/03 09:49:12;;;;;;;4.17;2.52;;;;;;;27.18;52.89;98393.72;1659076;84;21112;-66
2021/07/03 09:51:47;;;;;;;3.00;2.80;;;;;;;27.25;52.60;98391.38;1661526;85;21056;-66
2021/07/03 09:54:16;;;;;;;2.85;2.33;;;;;;;27.40;52.29;98390.75;1650454;85;21019;-66
2021/07/03 09:56:45;;;;;;;6.37;3.00;;;;;;;27.56;51.34;98383.45;1657594;84;20953;-65
2021/07/03 09:59:15;;;;;;;3.75;3.45;;;;;;;27.61;51.43;98385.85;1655089;85;21138;-64
2021/07/03 10:01:43;;;;;;;5.92;2.70;;;;;;;27.66;51.26;98382.08;1659706;84;21536;-65
2021/07/03 10:04:11;;;;;;;4.20;2.85;;;;;;;27.78;51.17;98386.33;1655703;86;21058;-65
2021/07/03 10:06:50;;;;;;;3.10;2.47;;;;;;;27.98;50.63;98375.20;1673802;84;21039;-65
2021/07/03 10:09:35;;;;;;;3.77;3.17;;;;;;;28.13;50.48;98383.08;1659708;84;20990;-65
2021/07/03 10:12:08;;;;;;;4.50;3.92;;;;;;;28.21;49.97;98385.58;1653589;84;21177;-65
2021/07/03 10:14:46;;;;;;;3.60;3.02;;;;;;;28.26;49.87;98380.45;1654648;85;21415;-65
2021/07/03 10:17:14;;;;;;;4.33;3.00;;;;;;;28.37;49.35;98387.91;1653248;84;21017;-65
2021/07/03 10:19:44;;;;;;;5.97;2.72;;;;;;;28.51;48.63;98383.89;1638482;85;21006;-65
2021/07/03 10:22:25;;;;;;;2.98;2.40;;;;;;;28.58;47.65;98379.39;1658118;85;21546;-65
2021/07/03 10:25:11;;;;;;;7.03;2.85;;;;;;;28.64;47.23;98378.03;1650541;84;21843;-65
2021/07/03 10:27:37;;;;;;;4.62;2.60;;;;;;;28.75;47.52;98379.29;1637258;86;21382;-66
2021/07/03 10:30:05;;;;;;;2.70;2.50;;;;;;;28.92;46.99;98379.20;1657002;84;21038;-66
2021/07/03 10:32:36;;;;;;;3.17;2.70;;;;;;;29.10;46.67;98384.74;1657682;84;21005;-65
2021/07/03 10:35:18;;;;;;;3.60;2.52;;;;;;;29.26;46.09;98385.33;1658311;84;21085;-65
2021/07/03 10:37:45;;;;;;;4.60;2.30;;;;;;;29.32;45.74;98385.33;1657844;85;21156;-64
2021/07/03 10:40:24;;;;;;;2.42;2.22;;;;;;;29.23;45.29;98391.09;1657706;85;21656;-65
2021/07/03 10:42:52;;;;;;;2.10;2.00;;;;;;;29.11;45.55;98389.07;1625582;86;21509;-65
2021/07/03 10:45:22;;;;;;;2.77;2.58;;;;;;;29.14;44.44;98390.00;1642078;86;21149;-65
2021/07/03 10:47:52;;;;;;;5.62;2.62;;;;;;;29.24;43.74;98392.23;1657260;85;21096;-65
2021/07/03 10:50:29;;;;;;;7.12;2.85;;;;;;;29.31;43.19;98389.03;1656215;85;21148;-66
2021/07/03 10:52:57;;;;;;;4.67;2.25;;;;;;;29.32;43.31;98391.20;1657447;85;21060;-65
2021/07/03 10:55:35;;;;;;;4.17;1.90;;;;;;;29.29;43.31;98380.90;1657583;85;21203;-66
2021/07/03 10:58:15;;;;;;;4.60;2.37;;;;;;;29.21;43.21;98376.58;1666576;85;21056;-65
2021/07/03 11:00:41;;;;;;;13.75;2.37;;;;;;;29.11;42.48;98377.53;1655771;86;21009;-65
2021/07/03 11:03:16;;;;;;;2.30;2.00;;;;;;;29.00;42.16;98374.95;1617329;87;21069;-65
2021/07/03 11:05:43;;;;;;;4.60;2.10;;;;;;;28.98;42.77;98373.52;1656646;86;21072;-65
2021/07/03 11:08:11;;;;;;;2.10;1.90;;;;;;;29.03;43.13;98377.22;1659120;84;21100;-65
2021/07/03 11:10:41;;;;;;;2.47;1.90;;;;;;;29.12;42.93;98367.95;1652252;84;21548;-65
2021/07/03 11:13:23;;;;;;;1.98;1.87;;;;;;;29.20;42.65;98369.57;1660856;84;21452;-66
2021/07/03 11:15:49;;;;;;;1.85;1.75;;;;;;;29.19;42.80;98370.60;1671793;84;21207;-66
2021/07/03 11:18:17;;;;;;;2.33;2.12;;;;;;;29.18;41.99;98370.30;1660832;84;21348;-66
2021/07/03 11:20:43;;;;;;;1.92;1.82;;;;;;;29.14;41.96;98370.43;1666004;84;20937;-65
2021/07/03 11:23:12;;;;;;;2.15;1.95;;;;;;;29.09;42.27;98363.02;1659930;84;20973;-66
2021/07/03 11:25:43;;;;;;;5.53;3.25;;;;;;;29.10;42.64;98365.17;1661549;84;21068;-65
2021/07/03 11:28:17;;;;;;;3.05;2.17;;;;;;;29.07;42.50;98369.09;1656753;84;21219;-66
2021/07/03 11:30:47;;;;;;;2.95;2.05;;;;;;;29.01;42.79;98356.53;1667743;84;21456;-66
2021/07/03 11:33:16;;;;;;;2.47;1.80;;;;;;;29.01;42.37;98361.88;1660617;84;21529;-66
2021/07/03 11:35:48;;;;;;;4.33;1.82;;;;;;;29.02;42.38;98358.69;1654485;85;21029;-66